sensor_id;sensor_type;location;lat;lon;timestamp;P1;durP1;ratioP1;P2;durP2;ratioP2
40705;SDS011;35790;50.790;20.800;2022-09-09T00:00:55;22.93;;;20.45;;
40705;SDS011;35790;50.790;20.800;2022-09-09T00:03:51;22.45;;;19.23;;
40705;SDS011;35790;50.790;20.800;2022-09-09T00:09:42;22.20;;;20.00;;
40705;SDS011;35790;50.790;20.800;2022-09-09T00:24:29;24.05;;;21.23;;
40705;SDS011;35790;50.790;20.800;2022-09-09T00:30:26;27.45;;;22.45;;
40705;SDS011;35790;50.790;20.800;2022-09-09T00:36:09;26.73;;;21.37;;
40705;SDS011;35790;50.790;20.800;2022-09-09T00:39:00;24.32;;;21.70;;
40705;SDS011;35790;50.790;20.800;2022-09-09T00:41:56;27.77;;;23.40;;
40705;SDS011;35790;50.790;20.800;2022-09-09T00:44:55;29.65;;;22.73;;
40705;SDS011;35790;50.790;20.800;2022-09-09T00:47:59;26.15;;;21.25;;
40705;SDS011;35790;50.790;20.800;2022-09-09T00:50:51;27.35;;;20.77;;
40705;SDS011;35790;50.790;20.800;2022-09-09T01:06:29;20.45;;;17.57;;
40705;SDS011;35790;50.790;20.800;2022-09-09T01:09:25;22.02;;;19.65;;
40705;SDS011;35790;50.790;20.800;2022-09-09T01:12:15;24.37;;;21.33;;
40705;SDS011;35790;50.790;20.800;2022-09-09T01:15:18;24.50;;;20.72;;
40705;SDS011;35790;50.790;20.800;2022-09-09T01:18:13;24.10;;;20.90;;
40705;SDS011;35790;50.790;20.800;2022-09-09T01:29:49;24.63;;;22.02;;
40705;SDS011;35790;50.790;20.800;2022-09-09T01:38:36;28.42;;;21.75;;
40705;SDS011;35790;50.790;20.800;2022-09-09T01:41:24;23.85;;;21.37;;
40705;SDS011;35790;50.790;20.800;2022-09-09T01:44:11;23.47;;;20.97;;
40705;SDS011;35790;50.790;20.800;2022-09-09T01:46:59;26.75;;;21.27;;
40705;SDS011;35790;50.790;20.800;2022-09-09T01:49:46;25.05;;;20.95;;
40705;SDS011;35790;50.790;20.800;2022-09-09T01:52:34;24.87;;;20.52;;
40705;SDS011;35790;50.790;20.800;2022-09-09T01:55:26;23.50;;;20.15;;
40705;SDS011;35790;50.790;20.800;2022-09-09T01:58:33;23.32;;;20.80;;
40705;SDS011;35790;50.790;20.800;2022-09-09T02:01:39;24.82;;;21.05;;
40705;SDS011;35790;50.790;20.800;2022-09-09T02:04:41;26.12;;;21.30;;
40705;SDS011;35790;50.790;20.800;2022-09-09T02:13:17;23.25;;;19.98;;
40705;SDS011;35790;50.790;20.800;2022-09-09T02:16:07;23.75;;;20.17;;
40705;SDS011;35790;50.790;20.800;2022-09-09T02:19:06;23.85;;;21.12;;
40705;SDS011;35790;50.790;20.800;2022-09-09T02:22:02;22.10;;;19.73;;
40705;SDS011;35790;50.790;20.800;2022-09-09T02:24:50;25.30;;;20.25;;
40705;SDS011;35790;50.790;20.800;2022-09-09T02:27:40;23.10;;;19.82;;
40705;SDS011;35790;50.790;20.800;2022-09-09T02:30:29;25.48;;;22.00;;
40705;SDS011;35790;50.790;20.800;2022-09-09T02:33:19;22.58;;;20.20;;
40705;SDS011;35790;50.790;20.800;2022-09-09T02:36:11;22.58;;;19.30;;
40705;SDS011;35790;50.790;20.800;2022-09-09T02:39:01;21.63;;;18.97;;
40705;SDS011;35790;50.790;20.800;2022-09-09T02:41:48;23.85;;;18.52;;
40705;SDS011;35790;50.790;20.800;2022-09-09T02:44:35;27.55;;;21.95;;
40705;SDS011;35790;50.790;20.800;2022-09-09T02:47:27;24.10;;;19.50;;
40705;SDS011;35790;50.790;20.800;2022-09-09T02:50:34;23.77;;;18.10;;
40705;SDS011;35790;50.790;20.800;2022-09-09T02:53:24;22.10;;;17.50;;
40705;SDS011;35790;50.790;20.800;2022-09-09T02:56:15;20.48;;;17.07;;
40705;SDS011;35790;50.790;20.800;2022-09-09T02:59:04;19.90;;;16.60;;
40705;SDS011;35790;50.790;20.800;2022-09-09T03:01:52;17.12;;;15.30;;
40705;SDS011;35790;50.790;20.800;2022-09-09T03:04:39;22.52;;;16.15;;
40705;SDS011;35790;50.790;20.800;2022-09-09T03:07:29;19.60;;;16.42;;
40705;SDS011;35790;50.790;20.800;2022-09-09T03:10:16;21.25;;;16.48;;
40705;SDS011;35790;50.790;20.800;2022-09-09T03:13:04;23.55;;;16.42;;
40705;SDS011;35790;50.790;20.800;2022-09-09T03:15:51;20.48;;;15.90;;
40705;SDS011;35790;50.790;20.800;2022-09-09T03:18:38;20.57;;;16.75;;
40705;SDS011;35790;50.790;20.800;2022-09-09T03:21:26;18.85;;;14.87;;
40705;SDS011;35790;50.790;20.800;2022-09-09T03:24:13;17.07;;;14.55;;
40705;SDS011;35790;50.790;20.800;2022-09-09T03:27:01;18.92;;;14.87;;
40705;SDS011;35790;50.790;20.800;2022-09-09T03:29:48;21.65;;;14.98;;
40705;SDS011;35790;50.790;20.800;2022-09-09T03:32:36;17.10;;;15.05;;
40705;SDS011;35790;50.790;20.800;2022-09-09T03:35:25;18.75;;;15.13;;
40705;SDS011;35790;50.790;20.800;2022-09-09T03:38:12;17.95;;;15.63;;
40705;SDS011;35790;50.790;20.800;2022-09-09T03:40:59;18.52;;;15.10;;
40705;SDS011;35790;50.790;20.800;2022-09-09T03:43:47;55.85;;;17.05;;
40705;SDS011;35790;50.790;20.800;2022-09-09T03:46:34;24.60;;;15.25;;
40705;SDS011;35790;50.790;20.800;2022-09-09T03:49:23;20.05;;;14.50;;
40705;SDS011;35790;50.790;20.800;2022-09-09T03:52:12;22.22;;;15.50;;
40705;SDS011;35790;50.790;20.800;2022-09-09T03:55:02;20.60;;;16.03;;
40705;SDS011;35790;50.790;20.800;2022-09-09T03:57:50;17.07;;;14.55;;
40705;SDS011;35790;50.790;20.800;2022-09-09T04:00:37;16.73;;;14.78;;
40705;SDS011;35790;50.790;20.800;2022-09-09T04:03:26;15.75;;;14.15;;
40705;SDS011;35790;50.790;20.800;2022-09-09T04:06:14;17.80;;;15.38;;
40705;SDS011;35790;50.790;20.800;2022-09-09T04:09:03;20.37;;;15.65;;
40705;SDS011;35790;50.790;20.800;2022-09-09T04:11:50;17.80;;;15.83;;
40705;SDS011;35790;50.790;20.800;2022-09-09T04:14:38;23.22;;;15.90;;
40705;SDS011;35790;50.790;20.800;2022-09-09T04:17:25;19.05;;;15.55;;
40705;SDS011;35790;50.790;20.800;2022-09-09T04:20:13;17.20;;;14.23;;
40705;SDS011;35790;50.790;20.800;2022-09-09T04:23:00;19.30;;;14.65;;
40705;SDS011;35790;50.790;20.800;2022-09-09T04:25:48;19.00;;;15.05;;
40705;SDS011;35790;50.790;20.800;2022-09-09T04:28:37;15.10;;;13.30;;
40705;SDS011;35790;50.790;20.800;2022-09-09T04:31:24;18.95;;;14.63;;
40705;SDS011;35790;50.790;20.800;2022-09-09T04:34:12;20.95;;;15.80;;
40705;SDS011;35790;50.790;20.800;2022-09-09T04:36:59;16.95;;;14.00;;
40705;SDS011;35790;50.790;20.800;2022-09-09T04:39:46;15.43;;;13.88;;
40705;SDS011;35790;50.790;20.800;2022-09-09T04:42:37;15.10;;;13.15;;
40705;SDS011;35790;50.790;20.800;2022-09-09T04:45:24;14.13;;;12.73;;
40705;SDS011;35790;50.790;20.800;2022-09-09T04:48:12;16.17;;;14.47;;
40705;SDS011;35790;50.790;20.800;2022-09-09T04:51:03;15.88;;;13.75;;
40705;SDS011;35790;50.790;20.800;2022-09-09T04:53:52;16.95;;;14.38;;
40705;SDS011;35790;50.790;20.800;2022-09-09T04:56:39;21.15;;;14.98;;
40705;SDS011;35790;50.790;20.800;2022-09-09T04:59:27;16.90;;;15.05;;
40705;SDS011;35790;50.790;20.800;2022-09-09T05:02:15;16.35;;;14.47;;
40705;SDS011;35790;50.790;20.800;2022-09-09T05:05:03;16.45;;;14.73;;
40705;SDS011;35790;50.790;20.800;2022-09-09T05:07:51;14.87;;;12.82;;
40705;SDS011;35790;50.790;20.800;2022-09-09T05:10:38;14.05;;;12.65;;
40705;SDS011;35790;50.790;20.800;2022-09-09T05:13:27;16.97;;;12.98;;
40705;SDS011;35790;50.790;20.800;2022-09-09T05:16:14;14.60;;;13.10;;
40705;SDS011;35790;50.790;20.800;2022-09-09T05:19:02;14.28;;;12.78;;
40705;SDS011;35790;50.790;20.800;2022-09-09T05:21:50;15.35;;;12.35;;
40705;SDS011;35790;50.790;20.800;2022-09-09T05:24:38;13.90;;;12.50;;
40705;SDS011;35790;50.790;20.800;2022-09-09T05:27:26;14.73;;;13.22;;
40705;SDS011;35790;50.790;20.800;2022-09-09T05:30:13;13.75;;;12.45;;
40705;SDS011;35790;50.790;20.800;2022-09-09T05:33:01;14.90;;;13.32;;
40705;SDS011;35790;50.790;20.800;2022-09-09T05:35:54;16.70;;;12.37;;
40705;SDS011;35790;50.790;20.800;2022-09-09T05:38:45;15.43;;;13.80;;
40705;SDS011;35790;50.790;20.800;2022-09-09T05:41:33;14.68;;;13.18;;
40705;SDS011;35790;50.790;20.800;2022-09-09T05:44:21;13.80;;;12.35;;
40705;SDS011;35790;50.790;20.800;2022-09-09T05:47:13;13.60;;;11.97;;
40705;SDS011;35790;50.790;20.800;2022-09-09T05:50:00;14.07;;;12.68;;
40705;SDS011;35790;50.790;20.800;2022-09-09T05:52:48;17.50;;;12.47;;
40705;SDS011;35790;50.790;20.800;2022-09-09T05:55:35;15.20;;;12.63;;
40705;SDS011;35790;50.790;20.800;2022-09-09T05:58:23;13.43;;;12.13;;
40705;SDS011;35790;50.790;20.800;2022-09-09T06:01:12;14.25;;;12.30;;
40705;SDS011;35790;50.790;20.800;2022-09-09T06:04:00;17.43;;;13.20;;
40705;SDS011;35790;50.790;20.800;2022-09-09T06:06:49;17.40;;;13.20;;
40705;SDS011;35790;50.790;20.800;2022-09-09T06:09:36;18.02;;;13.05;;
40705;SDS011;35790;50.790;20.800;2022-09-09T06:12:25;17.27;;;13.10;;
40705;SDS011;35790;50.790;20.800;2022-09-09T06:15:12;14.87;;;13.25;;
40705;SDS011;35790;50.790;20.800;2022-09-09T06:17:59;14.83;;;13.32;;
40705;SDS011;35790;50.790;20.800;2022-09-09T06:20:54;17.73;;;12.82;;
40705;SDS011;35790;50.790;20.800;2022-09-09T06:23:50;16.70;;;13.38;;
40705;SDS011;35790;50.790;20.800;2022-09-09T06:29:26;15.90;;;12.13;;
40705;SDS011;35790;50.790;20.800;2022-09-09T06:32:13;19.45;;;12.43;;
40705;SDS011;35790;50.790;20.800;2022-09-09T06:35:01;11.68;;;10.45;;
40705;SDS011;35790;50.790;20.800;2022-09-09T06:37:48;17.90;;;11.20;;
40705;SDS011;35790;50.790;20.800;2022-09-09T06:40:37;11.15;;;10.03;;
40705;SDS011;35790;50.790;20.800;2022-09-09T06:43:25;10.30;;;9.30;;
40705;SDS011;35790;50.790;20.800;2022-09-09T06:46:13;13.72;;;10.58;;
40705;SDS011;35790;50.790;20.800;2022-09-09T06:49:02;8.95;;;8.00;;
40705;SDS011;35790;50.790;20.800;2022-09-09T06:51:50;9.13;;;8.23;;
40705;SDS011;35790;50.790;20.800;2022-09-09T06:54:39;11.75;;;8.00;;
40705;SDS011;35790;50.790;20.800;2022-09-09T06:57:26;10.38;;;8.55;;
40705;SDS011;35790;50.790;20.800;2022-09-09T07:00:15;14.63;;;10.08;;
40705;SDS011;35790;50.790;20.800;2022-09-09T07:03:03;15.45;;;10.00;;
40705;SDS011;35790;50.790;20.800;2022-09-09T07:05:55;11.10;;;8.00;;
40705;SDS011;35790;50.790;20.800;2022-09-09T07:08:43;9.35;;;7.87;;
40705;SDS011;35790;50.790;20.800;2022-09-09T07:14:31;12.23;;;8.53;;
40705;SDS011;35790;50.790;20.800;2022-09-09T07:17:20;11.93;;;8.13;;
40705;SDS011;35790;50.790;20.800;2022-09-09T07:20:07;10.58;;;7.53;;
40705;SDS011;35790;50.790;20.800;2022-09-09T07:22:55;9.88;;;7.85;;
40705;SDS011;35790;50.790;20.800;2022-09-09T07:25:44;8.43;;;7.72;;
40705;SDS011;35790;50.790;20.800;2022-09-09T07:28:33;8.00;;;7.20;;
40705;SDS011;35790;50.790;20.800;2022-09-09T07:31:23;7.78;;;6.97;;
40705;SDS011;35790;50.790;20.800;2022-09-09T07:34:11;7.25;;;6.55;;
40705;SDS011;35790;50.790;20.800;2022-09-09T07:36:58;9.38;;;6.95;;
40705;SDS011;35790;50.790;20.800;2022-09-09T07:39:46;8.25;;;7.28;;
40705;SDS011;35790;50.790;20.800;2022-09-09T07:42:34;6.75;;;6.15;;
40705;SDS011;35790;50.790;20.800;2022-09-09T07:45:22;6.87;;;6.17;;
40705;SDS011;35790;50.790;20.800;2022-09-09T07:48:10;7.17;;;6.47;;
40705;SDS011;35790;50.790;20.800;2022-09-09T07:51:04;8.08;;;7.28;;
40705;SDS011;35790;50.790;20.800;2022-09-09T07:53:57;6.67;;;5.50;;
40705;SDS011;35790;50.790;20.800;2022-09-09T07:56:47;9.80;;;6.28;;
40705;SDS011;35790;50.790;20.800;2022-09-09T07:59:35;9.45;;;6.33;;
40705;SDS011;35790;50.790;20.800;2022-09-09T08:02:23;6.40;;;5.72;;
40705;SDS011;35790;50.790;20.800;2022-09-09T08:05:12;5.97;;;5.45;;
40705;SDS011;35790;50.790;20.800;2022-09-09T08:08:00;7.85;;;5.42;;
40705;SDS011;35790;50.790;20.800;2022-09-09T08:10:49;6.60;;;5.40;;
40705;SDS011;35790;50.790;20.800;2022-09-09T08:13:38;6.33;;;5.42;;
40705;SDS011;35790;50.790;20.800;2022-09-09T08:16:27;6.30;;;5.70;;
40705;SDS011;35790;50.790;20.800;2022-09-09T08:19:17;6.55;;;5.75;;
40705;SDS011;35790;50.790;20.800;2022-09-09T08:22:04;8.85;;;5.78;;
40705;SDS011;35790;50.790;20.800;2022-09-09T08:24:53;6.83;;;5.05;;
40705;SDS011;35790;50.790;20.800;2022-09-09T08:27:40;6.53;;;5.85;;
40705;SDS011;35790;50.790;20.800;2022-09-09T08:30:29;7.30;;;5.15;;
40705;SDS011;35790;50.790;20.800;2022-09-09T08:33:16;11.48;;;5.83;;
40705;SDS011;35790;50.790;20.800;2022-09-09T08:36:04;6.30;;;5.70;;
40705;SDS011;35790;50.790;20.800;2022-09-09T08:38:54;7.47;;;5.12;;
40705;SDS011;35790;50.790;20.800;2022-09-09T08:51:08;7.08;;;6.47;;
40705;SDS011;35790;50.790;20.800;2022-09-09T08:53:56;7.12;;;6.42;;
40705;SDS011;35790;50.790;20.800;2022-09-09T08:56:46;5.25;;;4.75;;
40705;SDS011;35790;50.790;20.800;2022-09-09T08:59:34;6.72;;;5.17;;
40705;SDS011;35790;50.790;20.800;2022-09-09T09:05:23;7.03;;;5.47;;
40705;SDS011;35790;50.790;20.800;2022-09-09T09:08:30;9.15;;;5.33;;
40705;SDS011;35790;50.790;20.800;2022-09-09T09:11:24;5.80;;;5.28;;
40705;SDS011;35790;50.790;20.800;2022-09-09T09:14:15;5.92;;;4.58;;
40705;SDS011;35790;50.790;20.800;2022-09-09T09:17:10;5.40;;;4.90;;
40705;SDS011;35790;50.790;20.800;2022-09-09T09:19:58;7.35;;;5.25;;
40705;SDS011;35790;50.790;20.800;2022-09-09T09:22:50;5.50;;;4.70;;
40705;SDS011;35790;50.790;20.800;2022-09-09T09:25:38;6.83;;;4.97;;
40705;SDS011;35790;50.790;20.800;2022-09-09T09:28:28;4.05;;;3.75;;
40705;SDS011;35790;50.790;20.800;2022-09-09T09:31:19;7.03;;;4.17;;
40705;SDS011;35790;50.790;20.800;2022-09-09T09:34:07;3.98;;;3.67;;
40705;SDS011;35790;50.790;20.800;2022-09-09T09:36:59;5.00;;;4.53;;
40705;SDS011;35790;50.790;20.800;2022-09-09T09:39:50;4.60;;;4.20;;
40705;SDS011;35790;50.790;20.800;2022-09-09T09:42:59;7.10;;;4.28;;
40705;SDS011;35790;50.790;20.800;2022-09-09T09:45:47;4.62;;;4.22;;
40705;SDS011;35790;50.790;20.800;2022-09-09T09:48:36;5.87;;;4.60;;
40705;SDS011;35790;50.790;20.800;2022-09-09T09:51:23;4.97;;;4.47;;
40705;SDS011;35790;50.790;20.800;2022-09-09T10:02:54;4.00;;;3.70;;
40705;SDS011;35790;50.790;20.800;2022-09-09T10:05:45;4.33;;;4.03;;
40705;SDS011;35790;50.790;20.800;2022-09-09T10:08:34;4.25;;;3.50;;
40705;SDS011;35790;50.790;20.800;2022-09-09T10:14:38;4.30;;;4.00;;
40705;SDS011;35790;50.790;20.800;2022-09-09T10:20:46;3.98;;;3.58;;
40705;SDS011;35790;50.790;20.800;2022-09-09T10:36:04;3.87;;;3.58;;
40705;SDS011;35790;50.790;20.800;2022-09-09T10:42:14;4.37;;;3.35;;
40705;SDS011;35790;50.790;20.800;2022-09-09T10:45:07;3.80;;;3.50;;
40705;SDS011;35790;50.790;20.800;2022-09-09T10:48:15;2.98;;;2.77;;
40705;SDS011;35790;50.790;20.800;2022-09-09T10:51:29;3.30;;;3.00;;
40705;SDS011;35790;50.790;20.800;2022-09-09T11:02:42;3.50;;;3.17;;
40705;SDS011;35790;50.790;20.800;2022-09-09T11:05:39;3.70;;;3.40;;
40705;SDS011;35790;50.790;20.800;2022-09-09T11:08:33;3.05;;;2.70;;
40705;SDS011;35790;50.790;20.800;2022-09-09T11:11:25;2.95;;;2.75;;
40705;SDS011;35790;50.790;20.800;2022-09-09T11:14:19;3.70;;;3.40;;
40705;SDS011;35790;50.790;20.800;2022-09-09T11:20:06;3.17;;;2.87;;
40705;SDS011;35790;50.790;20.800;2022-09-09T11:23:09;3.45;;;3.15;;
40705;SDS011;35790;50.790;20.800;2022-09-09T11:25:59;2.52;;;2.20;;
40705;SDS011;35790;50.790;20.800;2022-09-09T11:28:59;2.67;;;2.10;;
40705;SDS011;35790;50.790;20.800;2022-09-09T11:41:14;2.87;;;2.67;;
40705;SDS011;35790;50.790;20.800;2022-09-09T11:44:10;2.37;;;2.17;;
40705;SDS011;35790;50.790;20.800;2022-09-09T11:46:59;3.15;;;2.10;;
40705;SDS011;35790;50.790;20.800;2022-09-09T11:49:46;2.67;;;2.05;;
40705;SDS011;35790;50.790;20.800;2022-09-09T11:52:38;2.67;;;1.72;;
40705;SDS011;35790;50.790;20.800;2022-09-09T11:55:29;2.05;;;1.90;;
40705;SDS011;35790;50.790;20.800;2022-09-09T12:03:50;3.67;;;2.90;;
40705;SDS011;35790;50.790;20.800;2022-09-09T12:06:45;2.87;;;2.62;;
40705;SDS011;35790;50.790;20.800;2022-09-09T12:09:46;2.40;;;2.20;;
40705;SDS011;35790;50.790;20.800;2022-09-09T12:12:37;3.08;;;2.77;;
40705;SDS011;35790;50.790;20.800;2022-09-09T12:15:28;2.55;;;2.35;;
40705;SDS011;35790;50.790;20.800;2022-09-09T12:18:21;3.47;;;2.33;;
40705;SDS011;35790;50.790;20.800;2022-09-09T12:21:18;3.55;;;2.22;;
40705;SDS011;35790;50.790;20.800;2022-09-09T12:27:14;2.22;;;2.02;;
40705;SDS011;35790;50.790;20.800;2022-09-09T12:30:16;3.20;;;2.08;;
40705;SDS011;35790;50.790;20.800;2022-09-09T12:33:13;2.92;;;2.17;;
40705;SDS011;35790;50.790;20.800;2022-09-09T12:36:04;2.52;;;2.10;;
40705;SDS011;35790;50.790;20.800;2022-09-09T12:38:53;3.25;;;2.12;;
40705;SDS011;35790;50.790;20.800;2022-09-09T12:41:40;2.33;;;2.12;;
40705;SDS011;35790;50.790;20.800;2022-09-09T12:44:27;2.90;;;1.90;;
40705;SDS011;35790;50.790;20.800;2022-09-09T12:47:15;3.85;;;2.30;;
40705;SDS011;35790;50.790;20.800;2022-09-09T12:50:02;2.80;;;1.90;;
40705;SDS011;35790;50.790;20.800;2022-09-09T12:52:50;2.40;;;1.80;;
40705;SDS011;35790;50.790;20.800;2022-09-09T12:55:48;2.58;;;2.10;;
40705;SDS011;35790;50.790;20.800;2022-09-09T12:58:30;2.65;;;2.20;;
40705;SDS011;35790;50.790;20.800;2022-09-09T13:04:19;2.62;;;2.20;;
40705;SDS011;35790;50.790;20.800;2022-09-09T13:09:54;2.98;;;1.92;;
40705;SDS011;35790;50.790;20.800;2022-09-09T13:12:43;2.20;;;2.00;;
40705;SDS011;35790;50.790;20.800;2022-09-09T13:15:31;2.95;;;1.75;;
40705;SDS011;35790;50.790;20.800;2022-09-09T13:18:19;2.02;;;1.80;;
40705;SDS011;35790;50.790;20.800;2022-09-09T13:23:55;2.40;;;2.10;;
40705;SDS011;35790;50.790;20.800;2022-09-09T13:26:44;2.22;;;1.95;;
40705;SDS011;35790;50.790;20.800;2022-09-09T13:29:34;2.60;;;2.20;;
40705;SDS011;35790;50.790;20.800;2022-09-09T13:32:24;2.25;;;2.00;;
40705;SDS011;35790;50.790;20.800;2022-09-09T13:35:22;2.00;;;1.80;;
40705;SDS011;35790;50.790;20.800;2022-09-09T13:38:12;1.77;;;1.67;;
40705;SDS011;35790;50.790;20.800;2022-09-09T13:41:02;1.90;;;1.80;;
40705;SDS011;35790;50.790;20.800;2022-09-09T13:43:53;2.50;;;2.30;;
40705;SDS011;35790;50.790;20.800;2022-09-09T13:46:42;3.30;;;3.00;;
40705;SDS011;35790;50.790;20.800;2022-09-09T13:49:30;2.20;;;2.00;;
40705;SDS011;35790;50.790;20.800;2022-09-09T13:52:19;1.70;;;1.60;;
40705;SDS011;35790;50.790;20.800;2022-09-09T13:55:08;1.80;;;1.67;;
40705;SDS011;35790;50.790;20.800;2022-09-09T13:57:57;2.00;;;1.87;;
40705;SDS011;35790;50.790;20.800;2022-09-09T14:00:46;1.90;;;1.70;;
40705;SDS011;35790;50.790;20.800;2022-09-09T14:03:33;2.70;;;1.40;;
40705;SDS011;35790;50.790;20.800;2022-09-09T14:06:21;2.72;;;1.47;;
40705;SDS011;35790;50.790;20.800;2022-09-09T14:09:11;4.72;;;1.40;;
40705;SDS011;35790;50.790;20.800;2022-09-09T14:12:01;1.80;;;1.60;;
40705;SDS011;35790;50.790;20.800;2022-09-09T14:14:52;1.87;;;1.77;;
40705;SDS011;35790;50.790;20.800;2022-09-09T14:17:39;2.83;;;1.52;;
40705;SDS011;35790;50.790;20.800;2022-09-09T14:20:26;2.22;;;1.65;;
40705;SDS011;35790;50.790;20.800;2022-09-09T14:23:14;2.25;;;1.60;;
40705;SDS011;35790;50.790;20.800;2022-09-09T14:26:01;1.20;;;1.10;;
40705;SDS011;35790;50.790;20.800;2022-09-09T14:28:49;2.05;;;1.40;;
40705;SDS011;35790;50.790;20.800;2022-09-09T14:31:38;5.17;;;1.40;;
40705;SDS011;35790;50.790;20.800;2022-09-09T14:34:26;1.45;;;1.22;;
40705;SDS011;35790;50.790;20.800;2022-09-09T14:37:14;1.60;;;1.40;;
40705;SDS011;35790;50.790;20.800;2022-09-09T14:40:04;1.27;;;1.17;;
40705;SDS011;35790;50.790;20.800;2022-09-09T14:42:53;1.47;;;1.20;;
40705;SDS011;35790;50.790;20.800;2022-09-09T14:45:41;2.27;;;1.30;;
40705;SDS011;35790;50.790;20.800;2022-09-09T14:48:29;3.20;;;1.22;;
40705;SDS011;35790;50.790;20.800;2022-09-09T14:51:21;1.42;;;1.20;;
40705;SDS011;35790;50.790;20.800;2022-09-09T14:54:10;1.37;;;1.27;;
40705;SDS011;35790;50.790;20.800;2022-09-09T14:56:57;2.42;;;1.50;;
40705;SDS011;35790;50.790;20.800;2022-09-09T14:59:45;2.10;;;1.82;;
40705;SDS011;35790;50.790;20.800;2022-09-09T15:02:34;3.10;;;2.00;;
40705;SDS011;35790;50.790;20.800;2022-09-09T15:05:22;2.30;;;2.10;;
40705;SDS011;35790;50.790;20.800;2022-09-09T15:08:09;4.17;;;2.20;;
40705;SDS011;35790;50.790;20.800;2022-09-09T15:11:03;2.17;;;1.87;;
40705;SDS011;35790;50.790;20.800;2022-09-09T15:13:53;3.00;;;2.10;;
40705;SDS011;35790;50.790;20.800;2022-09-09T15:16:40;3.70;;;2.20;;
40705;SDS011;35790;50.790;20.800;2022-09-09T15:19:28;2.60;;;2.40;;
40705;SDS011;35790;50.790;20.800;2022-09-09T15:22:15;2.65;;;2.42;;
40705;SDS011;35790;50.790;20.800;2022-09-09T15:25:03;3.35;;;2.70;;
40705;SDS011;35790;50.790;20.800;2022-09-09T15:27:51;2.80;;;2.60;;
40705;SDS011;35790;50.790;20.800;2022-09-09T15:30:38;2.67;;;2.47;;
40705;SDS011;35790;50.790;20.800;2022-09-09T15:33:26;3.58;;;2.72;;
40705;SDS011;35790;50.790;20.800;2022-09-09T15:39:11;3.27;;;2.55;;
40705;SDS011;35790;50.790;20.800;2022-09-09T15:42:01;3.30;;;2.95;;
40705;SDS011;35790;50.790;20.800;2022-09-09T15:44:49;4.78;;;3.40;;
40705;SDS011;35790;50.790;20.800;2022-09-09T15:47:36;5.15;;;3.75;;
40705;SDS011;35790;50.790;20.800;2022-09-09T15:50:25;8.35;;;4.78;;
40705;SDS011;35790;50.790;20.800;2022-09-09T15:53:12;5.78;;;4.62;;
40705;SDS011;35790;50.790;20.800;2022-09-09T15:56:00;7.45;;;5.50;;
40705;SDS011;35790;50.790;20.800;2022-09-09T15:58:47;8.48;;;5.53;;
40705;SDS011;35790;50.790;20.800;2022-09-09T16:01:35;8.28;;;6.60;;
40705;SDS011;35790;50.790;20.800;2022-09-09T16:04:24;8.80;;;6.17;;
40705;SDS011;35790;50.790;20.800;2022-09-09T16:07:14;9.93;;;6.40;;
40705;SDS011;35790;50.790;20.800;2022-09-09T16:10:01;6.37;;;5.55;;
40705;SDS011;35790;50.790;20.800;2022-09-09T16:12:49;8.18;;;5.90;;
40705;SDS011;35790;50.790;20.800;2022-09-09T16:15:37;6.80;;;5.92;;
40705;SDS011;35790;50.790;20.800;2022-09-09T16:18:25;7.62;;;5.97;;
40705;SDS011;35790;50.790;20.800;2022-09-09T16:21:16;8.50;;;6.58;;
40705;SDS011;35790;50.790;20.800;2022-09-09T16:24:09;7.58;;;6.80;;
40705;SDS011;35790;50.790;20.800;2022-09-09T16:26:58;10.75;;;7.30;;
40705;SDS011;35790;50.790;20.800;2022-09-09T16:29:45;9.58;;;7.67;;
40705;SDS011;35790;50.790;20.800;2022-09-09T16:32:33;8.50;;;7.15;;
40705;SDS011;35790;50.790;20.800;2022-09-09T16:35:20;8.20;;;7.40;;
40705;SDS011;35790;50.790;20.800;2022-09-09T16:38:08;8.40;;;7.55;;
40705;SDS011;35790;50.790;20.800;2022-09-09T16:40:58;10.58;;;7.62;;
40705;SDS011;35790;50.790;20.800;2022-09-09T16:43:51;9.60;;;8.25;;
40705;SDS011;35790;50.790;20.800;2022-09-09T16:46:41;10.78;;;7.97;;
40705;SDS011;35790;50.790;20.800;2022-09-09T16:49:29;9.48;;;8.48;;
40705;SDS011;35790;50.790;20.800;2022-09-09T16:52:17;9.73;;;8.73;;
40705;SDS011;35790;50.790;20.800;2022-09-09T16:55:07;12.90;;;9.23;;
40705;SDS011;35790;50.790;20.800;2022-09-09T17:00:42;14.03;;;9.95;;
40705;SDS011;35790;50.790;20.800;2022-09-09T17:03:31;13.08;;;9.45;;
40705;SDS011;35790;50.790;20.800;2022-09-09T17:06:19;12.28;;;10.53;;
40705;SDS011;35790;50.790;20.800;2022-09-09T17:09:07;12.95;;;10.18;;
40705;SDS011;35790;50.790;20.800;2022-09-09T17:11:56;13.43;;;11.05;;
40705;SDS011;35790;50.790;20.800;2022-09-09T17:14:43;15.75;;;11.45;;
40705;SDS011;35790;50.790;20.800;2022-09-09T17:17:31;14.45;;;11.80;;
40705;SDS011;35790;50.790;20.800;2022-09-09T17:20:18;15.50;;;11.20;;
40705;SDS011;35790;50.790;20.800;2022-09-09T17:23:08;15.45;;;11.73;;
40705;SDS011;35790;50.790;20.800;2022-09-09T17:25:57;16.00;;;11.75;;
40705;SDS011;35790;50.790;20.800;2022-09-09T17:28:48;18.82;;;12.95;;
40705;SDS011;35790;50.790;20.800;2022-09-09T17:31:37;15.93;;;12.37;;
40705;SDS011;35790;50.790;20.800;2022-09-09T17:34:26;15.18;;;12.30;;
40705;SDS011;35790;50.790;20.800;2022-09-09T17:37:13;16.93;;;12.53;;
40705;SDS011;35790;50.790;20.800;2022-09-09T17:40:00;19.40;;;13.25;;
40705;SDS011;35790;50.790;20.800;2022-09-09T17:42:49;18.87;;;12.95;;
40705;SDS011;35790;50.790;20.800;2022-09-09T17:45:36;17.52;;;13.20;;
40705;SDS011;35790;50.790;20.800;2022-09-09T17:48:25;17.32;;;13.35;;
40705;SDS011;35790;50.790;20.800;2022-09-09T17:51:14;18.12;;;14.38;;
40705;SDS011;35790;50.790;20.800;2022-09-09T17:54:08;19.30;;;14.80;;
40705;SDS011;35790;50.790;20.800;2022-09-09T17:56:57;19.10;;;14.30;;
40705;SDS011;35790;50.790;20.800;2022-09-09T17:59:45;18.23;;;14.40;;
40705;SDS011;35790;50.790;20.800;2022-09-09T18:02:32;22.73;;;15.00;;
40705;SDS011;35790;50.790;20.800;2022-09-09T18:05:23;20.17;;;13.78;;
40705;SDS011;35790;50.790;20.800;2022-09-09T18:08:10;17.60;;;14.35;;
40705;SDS011;35790;50.790;20.800;2022-09-09T18:10:58;21.48;;;15.38;;
40705;SDS011;35790;50.790;20.800;2022-09-09T18:16:36;19.95;;;14.30;;
40705;SDS011;35790;50.790;20.800;2022-09-09T18:22:15;24.92;;;16.20;;
40705;SDS011;35790;50.790;20.800;2022-09-09T18:25:04;23.00;;;15.93;;
40705;SDS011;35790;50.790;20.800;2022-09-09T18:27:52;25.88;;;16.30;;
40705;SDS011;35790;50.790;20.800;2022-09-09T18:30:41;28.05;;;19.02;;
40705;SDS011;35790;50.790;20.800;2022-09-09T18:33:28;26.52;;;17.65;;
40705;SDS011;35790;50.790;20.800;2022-09-09T18:36:17;24.43;;;17.77;;
40705;SDS011;35790;50.790;20.800;2022-09-09T18:39:06;27.13;;;17.67;;
40705;SDS011;35790;50.790;20.800;2022-09-09T18:41:55;26.23;;;17.45;;
40705;SDS011;35790;50.790;20.800;2022-09-09T18:47:31;26.90;;;17.73;;
40705;SDS011;35790;50.790;20.800;2022-09-09T18:50:20;25.40;;;17.62;;
40705;SDS011;35790;50.790;20.800;2022-09-09T18:53:07;27.13;;;18.07;;
40705;SDS011;35790;50.790;20.800;2022-09-09T18:55:58;25.27;;;17.67;;
40705;SDS011;35790;50.790;20.800;2022-09-09T18:58:51;22.13;;;16.67;;
40705;SDS011;35790;50.790;20.800;2022-09-09T19:01:40;25.65;;;16.52;;
40705;SDS011;35790;50.790;20.800;2022-09-09T19:04:29;26.68;;;18.82;;
40705;SDS011;35790;50.790;20.800;2022-09-09T19:07:22;24.98;;;17.85;;